createdAt,value
2023-03-23T16:00:11.425Z,99891.46
2023-03-23T16:05:34.301Z,99905.73
2023-03-23T16:11:03.214Z,99911.63
2023-03-23T16:16:50.767Z,99887.62
2023-03-23T16:22:12.365Z,99904.69
2023-03-23T16:27:36.923Z,99898.58
2023-03-23T16:33:00.403Z,99931.26
2023-03-23T16:38:25.637Z,99934.88
2023-03-23T16:43:48.366Z,99922.41
2023-03-23T16:49:10.773Z,99919.07
2023-03-23T16:54:37.753Z,99948.76
2023-03-23T17:00:01.267Z,99934.03
2023-03-23T17:05:26.901Z,99934.14
2023-03-23T17:10:54.924Z,99929.59
2023-03-23T17:16:21.179Z,99937.58
2023-03-23T17:21:50.562Z,99943.34
2023-03-23T17:27:14.730Z,99946.92
2023-03-23T17:32:37.750Z,99954.41
2023-03-23T17:38:06.186Z,99957.84
2023-03-23T17:43:30.877Z,99950.03
2023-03-23T17:49:04.284Z,99952.06
2023-03-23T17:54:29.633Z,99943.67
2023-03-23T17:59:59.585Z,99947.50
2023-03-23T18:05:22.069Z,99963.70
2023-03-23T18:10:45.122Z,99944.97
2023-03-23T18:16:08.581Z,99943.55
2023-03-23T18:21:30.970Z,99966.09
2023-03-23T18:26:53.519Z,99977.42
2023-03-23T18:32:17.400Z,99982.39
2023-03-23T18:37:44.017Z,99993.56
2023-03-23T18:43:11.766Z,99984.09
2023-03-23T18:48:38.343Z,99964.41
2023-03-23T18:54:06.099Z,99974.03
2023-03-23T18:59:30.232Z,99971.77
2023-03-23T19:04:53.506Z,99972.63
2023-03-23T19:10:17.430Z,99988.77
2023-03-23T19:15:42.683Z,100053.32
2023-03-23T19:21:14.962Z,100071.39
2023-03-23T19:26:49.875Z,100020.05
2023-03-23T19:32:16.006Z,100020.05
2023-03-23T19:37:41.839Z,100052.12
2023-03-23T19:43:10.179Z,100051.58
2023-03-23T19:48:46.598Z,100052.63
2023-03-23T19:54:10.388Z,100040.70
2023-03-23T19:59:34.038Z,100042.46
2023-03-23T20:04:57.203Z,100053.83
2023-03-23T20:10:20.703Z,100068.72
2023-03-23T20:15:44.701Z,100067.87
2023-03-23T20:21:20.141Z,100068.91
2023-03-23T20:26:48.846Z,100069.69
2023-03-23T20:32:12.849Z,100065.69
2023-03-23T20:37:38.439Z,100081.42
2023-03-23T20:43:02.861Z,100100.81
2023-03-23T20:48:25.566Z,100115.53
2023-03-23T20:53:50.568Z,100116.77
2023-03-23T20:59:13.567Z,100120.30
2023-03-23T21:04:40.281Z,100111.53
2023-03-23T21:10:02.890Z,100112.39
2023-03-23T21:15:25.391Z,100121.49
2023-03-23T21:20:49.901Z,100116.77
2023-03-23T21:26:16.328Z,100107.12
2023-03-23T21:31:40.102Z,100106.95
2023-03-23T21:37:02.699Z,100108.17
2023-03-23T21:48:01.408Z,100125.58
2023-03-23T21:53:25.844Z,100135.44
2023-03-23T21:58:48.928Z,100133.73
2023-03-23T22:04:11.594Z,100125.93
2023-03-23T22:09:34.658Z,100188.21
2023-03-23T22:14:57.891Z,100159.91
2023-03-23T22:20:22.395Z,100121.56
2023-03-23T22:25:44.888Z,100123.56
2023-03-23T22:31:17.037Z,100123.93
2023-03-23T22:36:41.721Z,100123.38
2023-03-23T22:42:04.218Z,100122.85
2023-03-23T22:47:26.593Z,100125.04
2023-03-23T22:52:49.894Z,100132.66
2023-03-23T22:58:12.130Z,100126.34
2023-03-23T23:03:37.107Z,100121.30
2023-03-23T23:09:00.992Z,100120.59
2023-03-23T23:14:23.357Z,100123.39
2023-03-23T23:19:45.635Z,100119.33
2023-03-23T23:25:07.997Z,100113.60
2023-03-23T23:30:34.706Z,100108.39
2023-03-23T23:35:57.317Z,100096.84
2023-03-23T23:41:19.777Z,100114.45
2023-03-23T23:46:42.920Z,100121.03
2023-03-23T23:52:05.850Z,100116.45
2023-03-23T23:57:28.396Z,100104.26
